sensor_id;sensor_type;location;lat;lon;timestamp;pressure;altitude;pressure_sealevel;temperature;humidity
7407;BME280;3745;56.964;24.128;2023-03-04T00:00:37;99591.03;;;1.81;100.00
7407;BME280;3745;56.964;24.128;2023-03-04T00:03:08;99589.31;;;1.80;100.00
7407;BME280;3745;56.964;24.128;2023-03-04T00:05:36;99573.94;;;1.64;100.00
7407;BME280;3745;56.964;24.128;2023-03-04T00:08:02;99550.44;;;1.56;100.00
7407;BME280;3745;56.964;24.128;2023-03-04T00:10:27;99567.25;;;1.63;100.00
7407;BME280;3745;56.964;24.128;2023-03-04T00:12:53;99547.13;;;1.57;100.00
7407;BME280;3745;56.964;24.128;2023-03-04T00:15:18;99552.38;;;1.67;100.00
7407;BME280;3745;56.964;24.128;2023-03-04T00:17:44;99560.09;;;1.76;100.00
7407;BME280;3745;56.964;24.128;2023-03-04T00:20:11;99581.47;;;1.96;100.00
7407;BME280;3745;56.964;24.128;2023-03-04T00:22:36;99581.66;;;2.02;100.00
7407;BME280;3745;56.964;24.128;2023-03-04T00:25:03;99561.69;;;2.02;100.00
7407;BME280;3745;56.964;24.128;2023-03-04T00:27:28;99551.97;;;2.11;100.00
7407;BME280;3745;56.964;24.128;2023-03-04T00:29:55;99496.19;;;1.78;100.00
7407;BME280;3745;56.964;24.128;2023-03-04T00:32:21;99518.41;;;2.00;100.00
7407;BME280;3745;56.964;24.128;2023-03-04T00:34:46;99507.44;;;1.95;100.00
7407;BME280;3745;56.964;24.128;2023-03-04T00:37:12;99505.03;;;1.98;100.00
7407;BME280;3745;56.964;24.128;2023-03-04T00:39:37;99498.28;;;1.94;100.00
7407;BME280;3745;56.964;24.128;2023-03-04T00:42:03;99509.41;;;2.06;100.00
7407;BME280;3745;56.964;24.128;2023-03-04T00:44:29;99507.75;;;2.07;100.00
7407;BME280;3745;56.964;24.128;2023-03-04T00:46:54;99520.25;;;2.07;100.00
7407;BME280;3745;56.964;24.128;2023-03-04T00:49:20;99412.13;;;1.42;100.00
7407;BME280;3745;56.964;24.128;2023-03-04T00:51:45;99512.59;;;2.01;100.00
7407;BME280;3745;56.964;24.128;2023-03-04T00:54:11;99494.91;;;1.92;100.00
7407;BME280;3745;56.964;24.128;2023-03-04T00:56:37;99472.91;;;1.79;100.00
7407;BME280;3745;56.964;24.128;2023-03-04T00:59:02;99499.81;;;1.89;100.00
7407;BME280;3745;56.964;24.128;2023-03-04T01:01:28;99504.09;;;1.94;100.00
7407;BME280;3745;56.964;24.128;2023-03-04T01:03:53;99442.50;;;1.59;100.00
7407;BME280;3745;56.964;24.128;2023-03-04T01:06:19;99469.56;;;1.77;100.00
7407;BME280;3745;56.964;24.128;2023-03-04T01:08:44;99484.00;;;1.88;100.00
7407;BME280;3745;56.964;24.128;2023-03-04T01:11:10;99486.63;;;1.93;100.00
7407;BME280;3745;56.964;24.128;2023-03-04T01:13:36;99444.53;;;1.74;100.00
7407;BME280;3745;56.964;24.128;2023-03-04T01:16:01;99398.31;;;1.53;100.00
7407;BME280;3745;56.964;24.128;2023-03-04T01:18:28;99444.94;;;1.89;100.00
7407;BME280;3745;56.964;24.128;2023-03-04T01:20:54;99464.41;;;2.02;100.00
7407;BME280;3745;56.964;24.128;2023-03-04T01:23:19;99473.59;;;2.03;100.00
7407;BME280;3745;56.964;24.128;2023-03-04T01:25:45;99445.25;;;2.01;100.00
7407;BME280;3745;56.964;24.128;2023-03-04T01:28:10;99455.22;;;2.01;100.00
7407;BME280;3745;56.964;24.128;2023-03-04T01:30:36;99459.41;;;2.02;100.00
7407;BME280;3745;56.964;24.128;2023-03-04T01:33:01;99433.09;;;1.82;100.00
7407;BME280;3745;56.964;24.128;2023-03-04T01:35:27;99427.97;;;1.76;100.00
7407;BME280;3745;56.964;24.128;2023-03-04T01:37:52;99450.72;;;1.88;100.00
7407;BME280;3745;56.964;24.128;2023-03-04T01:40:18;99458.28;;;1.91;100.00
7407;BME280;3745;56.964;24.128;2023-03-04T01:42:44;99464.09;;;1.90;100.00
7407;BME280;3745;56.964;24.128;2023-03-04T01:45:13;99423.97;;;1.81;100.00
7407;BME280;3745;56.964;24.128;2023-03-04T01:47:40;99406.09;;;1.66;100.00
7407;BME280;3745;56.964;24.128;2023-03-04T01:50:17;99442.50;;;1.90;100.00
7407;BME280;3745;56.964;24.128;2023-03-04T01:52:43;99391.06;;;1.62;100.00
7407;BME280;3745;56.964;24.128;2023-03-04T01:55:15;99408.16;;;1.82;100.00
7407;BME280;3745;56.964;24.128;2023-03-04T01:57:41;99420.16;;;1.95;100.00
7407;BME280;3745;56.964;24.128;2023-03-04T02:00:29;99430.34;;;2.04;100.00
7407;BME280;3745;56.964;24.128;2023-03-04T02:03:05;99446.56;;;2.19;100.00
7407;BME280;3745;56.964;24.128;2023-03-04T02:05:38;99420.22;;;1.98;100.00
7407;BME280;3745;56.964;24.128;2023-03-04T02:08:05;99413.56;;;1.97;100.00
7407;BME280;3745;56.964;24.128;2023-03-04T02:10:31;99431.59;;;2.19;100.00
7407;BME280;3745;56.964;24.128;2023-03-04T02:12:59;99410.41;;;2.04;100.00
7407;BME280;3745;56.964;24.128;2023-03-04T02:15:25;99376.50;;;1.78;100.00
7407;BME280;3745;56.964;24.128;2023-03-04T02:17:51;99432.06;;;2.05;100.00
7407;BME280;3745;56.964;24.128;2023-03-04T02:21:01;99437.03;;;2.05;100.00
7407;BME280;3745;56.964;24.128;2023-03-04T02:23:49;99356.34;;;1.69;100.00
7407;BME280;3745;56.964;24.128;2023-03-04T02:26:17;99420.44;;;2.07;100.00
7407;BME280;3745;56.964;24.128;2023-03-04T02:28:44;99412.19;;;2.08;100.00
7407;BME280;3745;56.964;24.128;2023-03-04T02:31:29;99391.84;;;1.93;100.00
7407;BME280;3745;56.964;24.128;2023-03-04T02:33:58;99406.25;;;2.03;100.00
7407;BME280;3745;56.964;24.128;2023-03-04T02:36:24;99364.25;;;1.87;100.00
7407;BME280;3745;56.964;24.128;2023-03-04T02:38:52;99400.66;;;2.13;100.00
7407;BME280;3745;56.964;24.128;2023-03-04T02:41:22;99370.41;;;2.01;100.00
7407;BME280;3745;56.964;24.128;2023-03-04T02:43:52;99415.75;;;2.19;100.00
7407;BME280;3745;56.964;24.128;2023-03-04T02:46:18;99314.38;;;1.52;100.00
7407;BME280;3745;56.964;24.128;2023-03-04T02:48:44;99402.41;;;2.17;100.00
7407;BME280;3745;56.964;24.128;2023-03-04T02:51:09;99382.09;;;2.02;100.00
7407;BME280;3745;56.964;24.128;2023-03-04T02:53:35;99405.63;;;2.13;100.00
7407;BME280;3745;56.964;24.128;2023-03-04T02:56:00;99405.47;;;2.07;100.00
7407;BME280;3745;56.964;24.128;2023-03-04T02:58:26;99410.47;;;2.07;100.00
7407;BME280;3745;56.964;24.128;2023-03-04T03:00:52;99309.63;;;1.61;100.00
7407;BME280;3745;56.964;24.128;2023-03-04T03:03:17;99332.28;;;1.71;100.00
7407;BME280;3745;56.964;24.128;2023-03-04T03:05:43;99391.56;;;2.15;100.00
7407;BME280;3745;56.964;24.128;2023-03-04T03:08:09;99381.38;;;2.07;100.00
7407;BME280;3745;56.964;24.128;2023-03-04T03:10:35;99374.09;;;2.15;100.00
7407;BME280;3745;56.964;24.128;2023-03-04T03:13:00;99360.38;;;1.98;100.00
7407;BME280;3745;56.964;24.128;2023-03-04T03:15:26;99380.53;;;2.07;100.00
7407;BME280;3745;56.964;24.128;2023-03-04T03:17:52;99320.72;;;1.74;100.00
7407;BME280;3745;56.964;24.128;2023-03-04T03:20:17;99373.81;;;2.03;100.00
7407;BME280;3745;56.964;24.128;2023-03-04T03:22:43;99375.41;;;2.01;100.00
7407;BME280;3745;56.964;24.128;2023-03-04T03:25:11;99360.38;;;1.98;100.00
7407;BME280;3745;56.964;24.128;2023-03-04T03:27:37;99351.16;;;1.95;100.00
7407;BME280;3745;56.964;24.128;2023-03-04T03:30:03;99363.63;;;1.94;100.00
7407;BME280;3745;56.964;24.128;2023-03-04T03:32:29;99341.53;;;1.75;100.00
7407;BME280;3745;56.964;24.128;2023-03-04T03:34:55;99279.03;;;1.34;100.00
7407;BME280;3745;56.964;24.128;2023-03-04T03:37:20;99348.25;;;1.79;100.00
7407;BME280;3745;56.964;24.128;2023-03-04T03:39:46;99357.44;;;1.80;100.00
7407;BME280;3745;56.964;24.128;2023-03-04T03:42:11;99349.03;;;1.76;100.00
7407;BME280;3745;56.964;24.128;2023-03-04T03:44:37;99348.19;;;1.76;100.00
7407;BME280;3745;56.964;24.128;2023-03-04T03:47:02;99341.59;;;1.78;100.00
7407;BME280;3745;56.964;24.128;2023-03-04T03:49:28;99277.31;;;1.33;100.00
7407;BME280;3745;56.964;24.128;2023-03-04T03:51:54;99315.25;;;1.54;100.00
7407;BME280;3745;56.964;24.128;2023-03-04T03:54:20;99313.34;;;1.44;100.00
7407;BME280;3745;56.964;24.128;2023-03-04T03:56:45;99286.38;;;1.30;100.00
7407;BME280;3745;56.964;24.128;2023-03-04T03:59:11;99352.78;;;1.60;100.00
7407;BME280;3745;56.964;24.128;2023-03-04T04:01:36;99353.25;;;1.46;100.00
7407;BME280;3745;56.964;24.128;2023-03-04T04:04:03;99344.53;;;1.30;100.00
7407;BME280;3745;56.964;24.128;2023-03-04T04:06:28;99328.78;;;1.31;100.00
7407;BME280;3745;56.964;24.128;2023-03-04T04:08:54;99325.97;;;1.19;100.00
7407;BME280;3745;56.964;24.128;2023-03-04T04:11:20;99371.84;;;1.27;100.00
7407;BME280;3745;56.964;24.128;2023-03-04T04:13:45;99359.03;;;1.14;100.00
7407;BME280;3745;56.964;24.128;2023-03-04T04:16:11;99343.63;;;0.97;100.00
7407;BME280;3745;56.964;24.128;2023-03-04T04:18:37;99359.44;;;0.99;100.00
7407;BME280;3745;56.964;24.128;2023-03-04T04:21:03;99365.19;;;0.96;100.00
7407;BME280;3745;56.964;24.128;2023-03-04T04:23:29;99296.16;;;0.61;100.00
7407;BME280;3745;56.964;24.128;2023-03-04T04:25:56;99361.72;;;0.91;100.00
7407;BME280;3745;56.964;24.128;2023-03-04T04:28:22;99365.78;;;0.88;100.00
7407;BME280;3745;56.964;24.128;2023-03-04T04:30:47;99291.63;;;0.49;100.00
7407;BME280;3745;56.964;24.128;2023-03-04T04:33:13;99351.72;;;0.90;100.00
7407;BME280;3745;56.964;24.128;2023-03-04T04:35:39;99335.72;;;0.82;100.00
7407;BME280;3745;56.964;24.128;2023-03-04T04:38:05;99352.44;;;0.86;100.00
7407;BME280;3745;56.964;24.128;2023-03-04T04:40:31;99345.84;;;0.88;100.00
7407;BME280;3745;56.964;24.128;2023-03-04T04:42:57;99334.38;;;0.93;100.00
7407;BME280;3745;56.964;24.128;2023-03-04T04:45:23;99315.72;;;0.79;100.00
7407;BME280;3745;56.964;24.128;2023-03-04T04:47:50;99248.47;;;0.47;100.00
7407;BME280;3745;56.964;24.128;2023-03-04T04:50:16;99305.31;;;0.92;100.00
7407;BME280;3745;56.964;24.128;2023-03-04T04:52:42;99304.41;;;0.90;100.00
7407;BME280;3745;56.964;24.128;2023-03-04T04:55:08;99253.25;;;0.70;100.00
7407;BME280;3745;56.964;24.128;2023-03-04T04:57:33;99288.03;;;0.98;100.00
7407;BME280;3745;56.964;24.128;2023-03-04T04:59:59;99311.72;;;1.15;100.00
7407;BME280;3745;56.964;24.128;2023-03-04T05:02:25;99281.38;;;0.97;100.00
7407;BME280;3745;56.964;24.128;2023-03-04T05:04:50;99314.53;;;1.26;100.00
7407;BME280;3745;56.964;24.128;2023-03-04T05:07:16;99307.38;;;1.08;100.00
7407;BME280;3745;56.964;24.128;2023-03-04T05:09:42;99287.94;;;0.65;100.00
7407;BME280;3745;56.964;24.128;2023-03-04T05:12:08;99308.16;;;0.76;100.00
7407;BME280;3745;56.964;24.128;2023-03-04T05:14:33;99307.22;;;0.71;100.00
7407;BME280;3745;56.964;24.128;2023-03-04T05:16:59;99251.66;;;0.43;100.00
7407;BME280;3745;56.964;24.128;2023-03-04T05:19:24;99290.22;;;0.58;100.00
7407;BME280;3745;56.964;24.128;2023-03-04T05:21:50;99320.69;;;0.79;100.00
7407;BME280;3745;56.964;24.128;2023-03-04T05:24:16;99308.00;;;0.70;100.00
7407;BME280;3745;56.964;24.128;2023-03-04T05:26:41;99301.94;;;0.62;100.00
7407;BME280;3745;56.964;24.128;2023-03-04T05:29:07;99305.00;;;0.51;100.00
7407;BME280;3745;56.964;24.128;2023-03-04T05:31:32;99280.63;;;0.41;100.00
7407;BME280;3745;56.964;24.128;2023-03-04T05:33:58;99323.72;;;0.69;100.00
7407;BME280;3745;56.964;24.128;2023-03-04T05:36:23;99333.59;;;0.66;100.00
7407;BME280;3745;56.964;24.128;2023-03-04T05:38:49;99299.84;;;0.45;100.00
7407;BME280;3745;56.964;24.128;2023-03-04T05:41:14;99324.16;;;0.55;100.00
7407;BME280;3745;56.964;24.128;2023-03-04T05:43:43;99332.88;;;0.41;100.00
7407;BME280;3745;56.964;24.128;2023-03-04T05:46:16;99333.50;;;0.34;100.00
7407;BME280;3745;56.964;24.128;2023-03-04T05:48:42;99252.50;;;-0.13;100.00
7407;BME280;3745;56.964;24.128;2023-03-04T05:51:08;99288.91;;;0.12;100.00
7407;BME280;3745;56.964;24.128;2023-03-04T05:53:34;99204.22;;;-0.47;100.00
7407;BME280;3745;56.964;24.128;2023-03-04T05:56:12;99232.59;;;-0.39;100.00
7407;BME280;3745;56.964;24.128;2023-03-04T05:58:39;99337.50;;;0.29;100.00
7407;BME280;3745;56.964;24.128;2023-03-04T06:01:05;99308.59;;;0.06;100.00
7407;BME280;3745;56.964;24.128;2023-03-04T06:03:31;99311.69;;;-0.01;100.00
7407;BME280;3745;56.964;24.128;2023-03-04T06:05:57;99343.22;;;0.00;100.00
7407;BME280;3745;56.964;24.128;2023-03-04T06:08:23;99370.34;;;-0.06;100.00
7407;BME280;3745;56.964;24.128;2023-03-04T06:10:52;99368.63;;;-0.09;100.00
7407;BME280;3745;56.964;24.128;2023-03-04T06:13:18;99360.94;;;-0.16;100.00
7407;BME280;3745;56.964;24.128;2023-03-04T06:15:43;99371.06;;;-0.10;100.00
7407;BME280;3745;56.964;24.128;2023-03-04T06:18:09;99335.88;;;-0.22;100.00
7407;BME280;3745;56.964;24.128;2023-03-04T06:20:35;99372.63;;;-0.12;100.00
7407;BME280;3745;56.964;24.128;2023-03-04T06:23:01;99355.84;;;-0.19;100.00
7407;BME280;3745;56.964;24.128;2023-03-04T06:25:27;99372.84;;;-0.06;100.00
7407;BME280;3745;56.964;24.128;2023-03-04T06:27:53;99391.25;;;-0.01;100.00
7407;BME280;3745;56.964;24.128;2023-03-04T06:30:18;99236.81;;;-0.64;100.00
7407;BME280;3745;56.964;24.128;2023-03-04T06:32:44;99342.75;;;0.12;100.00
7407;BME280;3745;56.964;24.128;2023-03-04T06:35:12;99334.72;;;0.20;100.00
7407;BME280;3745;56.964;24.128;2023-03-04T06:37:38;99334.03;;;0.24;100.00
7407;BME280;3745;56.964;24.128;2023-03-04T06:40:05;99231.59;;;-0.19;100.00
7407;BME280;3745;56.964;24.128;2023-03-04T06:42:32;99231.78;;;-0.13;100.00
7407;BME280;3745;56.964;24.128;2023-03-04T06:44:58;99307.03;;;0.36;100.00
7407;BME280;3745;56.964;24.128;2023-03-04T06:47:24;99309.63;;;0.39;100.00
7407;BME280;3745;56.964;24.128;2023-03-04T06:49:49;99194.16;;;-0.24;100.00
7407;BME280;3745;56.964;24.128;2023-03-04T06:52:15;99321.50;;;0.49;100.00
7407;BME280;3745;56.964;24.128;2023-03-04T06:54:41;99343.06;;;0.22;100.00
7407;BME280;3745;56.964;24.128;2023-03-04T06:57:06;99265.63;;;-0.43;100.00
7407;BME280;3745;56.964;24.128;2023-03-04T06:59:32;99260.56;;;-0.46;100.00
7407;BME280;3745;56.964;24.128;2023-03-04T07:01:58;99279.31;;;-0.29;100.00
7407;BME280;3745;56.964;24.128;2023-03-04T07:04:23;99326.88;;;0.08;100.00
7407;BME280;3745;56.964;24.128;2023-03-04T07:06:49;99209.00;;;-0.53;100.00
7407;BME280;3745;56.964;24.128;2023-03-04T07:09:16;99276.78;;;-0.04;100.00
7407;BME280;3745;56.964;24.128;2023-03-04T07:11:41;99289.34;;;0.27;100.00
7407;BME280;3745;56.964;24.128;2023-03-04T07:14:07;99311.84;;;0.32;100.00
7407;BME280;3745;56.964;24.128;2023-03-04T07:16:33;99245.81;;;0.13;100.00
7407;BME280;3745;56.964;24.128;2023-03-04T07:18:59;99291.56;;;0.46;100.00
7407;BME280;3745;56.964;24.128;2023-03-04T07:21:27;99171.28;;;-0.14;100.00
7407;BME280;3745;56.964;24.128;2023-03-04T07:23:53;99236.22;;;0.25;100.00
7407;BME280;3745;56.964;24.128;2023-03-04T07:26:19;99268.03;;;0.35;100.00
7407;BME280;3745;56.964;24.128;2023-03-04T07:28:45;99293.44;;;0.53;100.00
7407;BME280;3745;56.964;24.128;2023-03-04T07:31:22;99296.69;;;0.52;100.00
7407;BME280;3745;56.964;24.128;2023-03-04T07:33:49;99290.16;;;0.54;100.00
7407;BME280;3745;56.964;24.128;2023-03-04T07:36:15;99288.19;;;0.44;100.00
7407;BME280;3745;56.964;24.128;2023-03-04T07:38:45;99281.16;;;0.31;100.00
7407;BME280;3745;56.964;24.128;2023-03-04T07:41:12;99274.88;;;0.42;100.00
7407;BME280;3745;56.964;24.128;2023-03-04T07:43:37;99146.66;;;-0.34;100.00
7407;BME280;3745;56.964;24.128;2023-03-04T07:46:04;99275.41;;;0.62;100.00
7407;BME280;3745;56.964;24.128;2023-03-04T07:48:30;99278.91;;;0.69;100.00
7407;BME280;3745;56.964;24.128;2023-03-04T07:51:10;99275.03;;;0.77;100.00
7407;BME280;3745;56.964;24.128;2023-03-04T07:53:37;99255.72;;;0.70;100.00
7407;BME280;3745;56.964;24.128;2023-03-04T07:56:04;99242.91;;;0.56;100.00
7407;BME280;3745;56.964;24.128;2023-03-04T07:58:30;99272.69;;;0.83;100.00
7407;BME280;3745;56.964;24.128;2023-03-04T08:00:56;99275.28;;;0.87;100.00
7407;BME280;3745;56.964;24.128;2023-03-04T08:03:22;99301.94;;;0.62;100.00
7407;BME280;3745;56.964;24.128;2023-03-04T08:05:49;99251.38;;;0.05;100.00
7407;BME280;3745;56.964;24.128;2023-03-04T08:08:15;99269.28;;;0.21;100.00
7407;BME280;3745;56.964;24.128;2023-03-04T08:10:41;99292.47;;;0.48;100.00
7407;BME280;3745;56.964;24.128;2023-03-04T08:13:07;99269.00;;;0.40;100.00
7407;BME280;3745;56.964;24.128;2023-03-04T08:15:33;99230.41;;;0.25;100.00
7407;BME280;3745;56.964;24.128;2023-03-04T08:18:00;99164.41;;;0.06;100.00
7407;BME280;3745;56.964;24.128;2023-03-04T08:20:26;99215.75;;;0.34;100.00
7407;BME280;3745;56.964;24.128;2023-03-04T08:22:51;99248.81;;;0.60;100.00
7407;BME280;3745;56.964;24.128;2023-03-04T08:25:17;99231.84;;;0.46;100.00
7407;BME280;3745;56.964;24.128;2023-03-04T08:27:43;99231.28;;;0.55;100.00
7407;BME280;3745;56.964;24.128;2023-03-04T08:30:09;99146.44;;;0.16;100.00
7407;BME280;3745;56.964;24.128;2023-03-04T08:32:35;99232.25;;;0.62;100.00
7407;BME280;3745;56.964;24.128;2023-03-04T08:35:01;99165.91;;;0.31;100.00
7407;BME280;3745;56.964;24.128;2023-03-04T08:37:28;99160.03;;;0.27;100.00
7407;BME280;3745;56.964;24.128;2023-03-04T08:39:54;99208.31;;;0.35;100.00
7407;BME280;3745;56.964;24.128;2023-03-04T08:42:20;99214.56;;;0.21;100.00
7407;BME280;3745;56.964;24.128;2023-03-04T08:44:45;99223.94;;;0.31;100.00
7407;BME280;3745;56.964;24.128;2023-03-04T08:47:11;99219.53;;;0.21;100.00
7407;BME280;3745;56.964;24.128;2023-03-04T08:49:37;99223.31;;;0.09;100.00
7407;BME280;3745;56.964;24.128;2023-03-04T08:52:03;99279.66;;;0.36;100.00
7407;BME280;3745;56.964;24.128;2023-03-04T08:54:28;99271.22;;;0.31;100.00
7407;BME280;3745;56.964;24.128;2023-03-04T08:56:54;99265.19;;;0.23;100.00
7407;BME280;3745;56.964;24.128;2023-03-04T08:59:19;99300.69;;;0.19;100.00
7407;BME280;3745;56.964;24.128;2023-03-04T09:01:45;99282.22;;;0.11;100.00
7407;BME280;3745;56.964;24.128;2023-03-04T09:04:11;99229.25;;;-0.41;100.00
7407;BME280;3745;56.964;24.128;2023-03-04T09:06:37;99270.78;;;-0.37;100.00
7407;BME280;3745;56.964;24.128;2023-03-04T09:09:03;99308.44;;;-0.25;100.00
7407;BME280;3745;56.964;24.128;2023-03-04T09:11:29;99309.13;;;-0.29;100.00
7407;BME280;3745;56.964;24.128;2023-03-04T09:13:55;99329.50;;;-0.39;100.00
7407;BME280;3745;56.964;24.128;2023-03-04T09:16:21;99313.41;;;-0.50;100.00
7407;BME280;3745;56.964;24.128;2023-03-04T09:18:46;99316.88;;;-0.45;100.00
7407;BME280;3745;56.964;24.128;2023-03-04T09:21:12;99258.66;;;-0.53;100.00
7407;BME280;3745;56.964;24.128;2023-03-04T09:23:38;99254.19;;;-0.38;100.00
7407;BME280;3745;56.964;24.128;2023-03-04T09:26:36;99261.69;;;-0.10;100.00
7407;BME280;3745;56.964;24.128;2023-03-04T09:29:02;99253.41;;;-0.09;100.00
7407;BME280;3745;56.964;24.128;2023-03-04T09:31:28;99264.75;;;0.10;100.00
7407;BME280;3745;56.964;24.128;2023-03-04T09:33:56;99241.47;;;0.06;100.00
7407;BME280;3745;56.964;24.128;2023-03-04T09:36:22;99246.38;;;0.05;100.00
7407;BME280;3745;56.964;24.128;2023-03-04T09:38:48;99167.16;;;-0.40;100.00
7407;BME280;3745;56.964;24.128;2023-03-04T09:41:17;99211.91;;;-0.13;100.00
7407;BME280;3745;56.964;24.128;2023-03-04T09:43:46;99165.09;;;-0.26;100.00
7407;BME280;3745;56.964;24.128;2023-03-04T09:46:42;99235.78;;;0.10;100.00
7407;BME280;3745;56.964;24.128;2023-03-04T09:49:10;99232.41;;;0.08;100.00
7407;BME280;3745;56.964;24.128;2023-03-04T09:51:46;99233.28;;;0.10;100.00
7407;BME280;3745;56.964;24.128;2023-03-04T09:54:15;99242.34;;;0.08;100.00
7407;BME280;3745;56.964;24.128;2023-03-04T09:56:43;99218.16;;;0.03;100.00
7407;BME280;3745;56.964;24.128;2023-03-04T09:59:29;99252.22;;;0.05;100.00
7407;BME280;3745;56.964;24.128;2023-03-04T10:02:01;99212.00;;;-0.10;100.00
7407;BME280;3745;56.964;24.128;2023-03-04T10:04:46;99225.75;;;0.07;100.00
7407;BME280;3745;56.964;24.128;2023-03-04T10:07:23;99218.53;;;-0.12;100.00
7407;BME280;3745;56.964;24.128;2023-03-04T10:09:56;99228.56;;;-0.09;100.00
7407;BME280;3745;56.964;24.128;2023-03-04T10:12:28;99179.84;;;-0.32;100.00
7407;BME280;3745;56.964;24.128;2023-03-04T10:15:03;99206.38;;;-0.31;100.00
7407;BME280;3745;56.964;24.128;2023-03-04T10:17:35;99212.47;;;-0.22;100.00
7407;BME280;3745;56.964;24.128;2023-03-04T10:20:12;99225.53;;;-0.27;100.00
7407;BME280;3745;56.964;24.128;2023-03-04T10:22:43;99136.72;;;-0.88;100.00
7407;BME280;3745;56.964;24.128;2023-03-04T10:25:17;99206.00;;;-0.43;100.00
7407;BME280;3745;56.964;24.128;2023-03-04T10:27:54;99189.06;;;-0.55;100.00
7407;BME280;3745;56.964;24.128;2023-03-04T10:33:11;99194.81;;;-0.29;100.00
7407;BME280;3745;56.964;24.128;2023-03-04T10:35:38;99165.53;;;-0.39;100.00
7407;BME280;3745;56.964;24.128;2023-03-04T10:38:05;99195.09;;;-0.20;100.00
7407;BME280;3745;56.964;24.128;2023-03-04T10:40:37;99177.50;;;-0.28;100.00
7407;BME280;3745;56.964;24.128;2023-03-04T10:43:03;99194.03;;;-0.28;100.00
7407;BME280;3745;56.964;24.128;2023-03-04T10:45:37;99148.72;;;-0.75;100.00
7407;BME280;3745;56.964;24.128;2023-03-04T10:48:03;99182.44;;;-0.55;100.00
7407;BME280;3745;56.964;24.128;2023-03-04T10:50:29;99195.69;;;-0.56;100.00
7407;BME280;3745;56.964;24.128;2023-03-04T10:52:56;99155.66;;;-0.65;100.00
7407;BME280;3745;56.964;24.128;2023-03-04T10:55:26;99193.69;;;-0.66;100.00
7407;BME280;3745;56.964;24.128;2023-03-04T10:57:54;99170.66;;;-0.62;100.00
7407;BME280;3745;56.964;24.128;2023-03-04T11:00:35;99176.44;;;-0.61;100.00
7407;BME280;3745;56.964;24.128;2023-03-04T11:03:27;99162.22;;;-0.67;100.00
7407;BME280;3745;56.964;24.128;2023-03-04T11:08:41;99151.50;;;-0.91;100.00
7407;BME280;3745;56.964;24.128;2023-03-04T11:13:51;99165.91;;;-0.81;100.00
7407;BME280;3745;56.964;24.128;2023-03-04T11:16:26;99051.59;;;-1.37;100.00
7407;BME280;3745;56.964;24.128;2023-03-04T11:18:55;99161.72;;;-0.82;100.00
7407;BME280;3745;56.964;24.128;2023-03-04T11:21:27;99144.94;;;-0.89;100.00
7407;BME280;3745;56.964;24.128;2023-03-04T11:26:30;99131.84;;;-1.10;100.00
7407;BME280;3745;56.964;24.128;2023-03-04T11:29:07;99158.50;;;-1.04;100.00
7407;BME280;3745;56.964;24.128;2023-03-04T11:31:42;99120.94;;;-1.15;100.00
7407;BME280;3745;56.964;24.128;2023-03-04T11:36:55;99132.97;;;-1.02;100.00
7407;BME280;3745;56.964;24.128;2023-03-04T11:45:21;99093.00;;;-1.35;100.00
7407;BME280;3745;56.964;24.128;2023-03-04T11:50:28;99131.16;;;-1.06;100.00
7407;BME280;3745;56.964;24.128;2023-03-04T11:53:27;99121.69;;;-1.18;100.00
7407;BME280;3745;56.964;24.128;2023-03-04T11:56:20;99127.50;;;-1.17;100.00
7407;BME280;3745;56.964;24.128;2023-03-04T12:05:13;99161.34;;;-0.94;100.00
7407;BME280;3745;56.964;24.128;2023-03-04T12:10:52;99164.72;;;-0.92;100.00
7407;BME280;3745;56.964;24.128;2023-03-04T12:39:01;99161.38;;;-0.40;100.00
7407;BME280;3745;56.964;24.128;2023-03-04T12:52:27;99167.31;;;0.21;100.00
7407;BME280;3745;56.964;24.128;2023-03-04T12:55:01;99167.34;;;0.23;100.00
7407;BME280;3745;56.964;24.128;2023-03-04T12:57:28;99165.25;;;0.36;100.00
7407;BME280;3745;56.964;24.128;2023-03-04T13:00:07;99173.41;;;0.32;100.00
7407;BME280;3745;56.964;24.128;2023-03-04T13:10:36;99185.31;;;0.42;100.00
7407;BME280;3745;56.964;24.128;2023-03-04T13:13:03;99185.47;;;0.48;100.00
7407;BME280;3745;56.964;24.128;2023-03-04T13:15:36;99178.47;;;0.35;100.00
7407;BME280;3745;56.964;24.128;2023-03-04T13:20:43;99206.47;;;0.58;100.00
7407;BME280;3745;56.964;24.128;2023-03-04T13:25:45;99190.44;;;0.48;100.00
7407;BME280;3745;56.964;24.128;2023-03-04T13:28:19;60200.03;;;-143.44;100.00
7407;BME280;3745;56.964;24.128;2023-03-04T13:35:58;60200.03;;;-143.44;100.00
7407;BME280;3745;56.964;24.128;2023-03-04T13:41:22;60200.03;;;-143.44;100.00
7407;BME280;3745;56.964;24.128;2023-03-04T13:51:38;60200.03;;;-143.44;100.00
7407;BME280;3745;56.964;24.128;2023-03-04T13:54:25;60200.03;;;-143.44;100.00
7407;BME280;3745;56.964;24.128;2023-03-04T13:59:31;60200.03;;;-143.44;100.00
7407;BME280;3745;56.964;24.128;2023-03-04T14:02:07;60200.03;;;-143.44;100.00
7407;BME280;3745;56.964;24.128;2023-03-04T14:04:40;60200.03;;;-143.44;100.00
7407;BME280;3745;56.964;24.128;2023-03-04T14:07:20;60200.03;;;-143.44;100.00
7407;BME280;3745;56.964;24.128;2023-03-04T14:12:44;60200.03;;;-143.44;100.00
7407;BME280;3745;56.964;24.128;2023-03-04T14:17:48;60200.03;;;-143.44;100.00
7407;BME280;3745;56.964;24.128;2023-03-04T14:22:59;99243.31;;;1.01;100.00
7407;BME280;3745;56.964;24.128;2023-03-04T14:25:27;99246.44;;;0.94;100.00
7407;BME280;3745;56.964;24.128;2023-03-04T14:28:09;99246.50;;;0.97;100.00
7407;BME280;3745;56.964;24.128;2023-03-04T14:30:36;99242.97;;;0.89;100.00
7407;BME280;3745;56.964;24.128;2023-03-04T14:33:06;60200.03;;;-143.44;100.00
7407;BME280;3745;56.964;24.128;2023-03-04T14:35:32;99202.22;;;0.55;100.00
7407;BME280;3745;56.964;24.128;2023-03-04T14:38:05;99271.31;;;0.94;100.00
7407;BME280;3745;56.964;24.128;2023-03-04T14:40:39;99291.06;;;0.88;100.00
7407;BME280;3745;56.964;24.128;2023-03-04T14:43:10;99267.19;;;0.94;100.00
7407;BME280;3745;56.964;24.128;2023-03-04T14:45:38;99273.03;;;0.95;100.00
7407;BME280;3745;56.964;24.128;2023-03-04T14:48:06;99293.44;;;0.83;100.00
7407;BME280;3745;56.964;24.128;2023-03-04T14:50:32;99289.47;;;0.90;100.00
7407;BME280;3745;56.964;24.128;2023-03-04T14:55:35;99242.06;;;0.55;100.00
7407;BME280;3745;56.964;24.128;2023-03-04T14:58:15;99245.78;;;0.70;100.00
7407;BME280;3745;56.964;24.128;2023-03-04T15:00:44;99311.00;;;0.88;100.00
7407;BME280;3745;56.964;24.128;2023-03-04T15:03:27;99317.84;;;0.95;100.00